Sunny Williams — WDE4940 — position and weather

sailwx.info

Track history (hours):
 
Tides and Currents Weather Stations Pressure Air Temp Water Temp Dewpoint Dewpoint Depression Visibility Wind Speed Wind Dir Waves Ship Positions

Sunny Williams

Owner: Marine Oil Service of New York, LLC, Elizabeth, NJ. More information available from US FCC via Universal Licensing System.

Last reported at 2017-Sep-21 00:39 UTC. Time now 2017-Sep-21 05:01 UTC.
Position N 40°42' W 074°09'.

Type: Tanker. MMSI: 367359930.

Date/timePositionNaut miles runAvg speedWind from/ knotsBaromVisibWave heightAir tempDewpointWater temp
2017-Sep-21 00:39N 40°42' W 074°09'0 1.9
2017-Sep-21 00:30N 40°42' W 074°08'0 0.0
2017-Sep-21 00:00N 40°42' W 074°08'0 0.0
2017-Sep-20 23:28N 40°42' W 074°08'0 0.0
2017-Sep-20 23:00N 40°42' W 074°08'0 0.0
2017-Sep-20 22:30N 40°42' W 074°08'0 0.0
2017-Sep-20 22:00N 40°42' W 074°08'0 0.7
2017-Sep-20 21:30N 40°41' W 074°08'3 5.5
2017-Sep-20 21:00N 40°39' W 074°07'2 4.6
2017-Sep-20 20:30N 40°38' W 074°04'0 0.0
2017-Sep-20 20:00N 40°38' W 074°04'0 0.0
2017-Sep-20 19:29N 40°38' W 074°04'0 0.0
2017-Sep-20 19:00N 40°38' W 074°04'0 0.4
2017-Sep-20 18:30N 40°38' W 074°04'0 0.7
2017-Sep-20 18:00N 40°38' W 074°04'4 7.9
2017-Sep-20 17:26N 40°39' W 074°10'2 3.6
2017-Sep-20 17:00N 40°38' W 074°12'0 0.0
2017-Sep-20 16:30N 40°38' W 074°12'1 1.1
2017-Sep-20 15:59N 40°38' W 074°12'0 0.0
2017-Sep-20 14:43N 40°38' W 074°12'0 0.1
2017-Sep-20 13:59N 40°38' W 074°12'0 0.9
2017-Sep-20 13:30N 40°38' W 074°12'0 0.2
2017-Sep-20 13:00N 40°38' W 074°12'0 0.0
2017-Sep-20 12:30N 40°38' W 074°12'0 0.0
2017-Sep-20 12:00N 40°38' W 074°12'0 0.0
2017-Sep-20 00:27N 40°38' W 074°12'2 4.8
2017-Sep-20 00:00N 40°39' W 074°09'4 7.6
2017-Sep-19 23:30N 40°38' W 074°04'1 0.5
2017-Sep-19 22:06N 40°38' W 074°04'0 0.2
2017-Sep-19 21:57N 40°38' W 074°04'1 1.8
2017-Sep-19 21:30N 40°38' W 074°03'4 8.9
2017-Sep-19 21:00N 40°43' W 074°02'4 7.2
2017-Sep-19 20:30N 40°46' W 073°60'0 0.0
2017-Sep-19 20:00N 40°46' W 073°60'1 2.9
2017-Sep-19 19:30N 40°45' W 074°01'3 5.8
2017-Sep-19 19:00N 40°42' W 074°02'3 5.8
2017-Sep-19 18:30N 40°39' W 074°03'4 8.1
2017-Sep-19 18:00N 40°38' W 074°09'2 0.1
2017-Sep-19 00:26N 40°38' W 074°12'3 5.9
2017-Sep-19 00:00N 40°39' W 074°09'2 1.5
2017-Sep-18 22:22N 40°42' W 074°09'3 7.5
2017-Sep-18 21:59N 40°39' W 074°09'3 4.6
2017-Sep-18 21:25N 40°38' W 074°12'0 0.0
2017-Sep-18 21:00N 40°38' W 074°12'0 0.0
2017-Sep-18 20:30N 40°38' W 074°12'2 3.6
2017-Sep-18 19:58N 40°39' W 074°10'4 9.5
2017-Sep-18 19:30N 40°39' W 074°04'4 6.7
2017-Sep-18 18:59N 40°36' W 074°02'0 0.0
2017-Sep-18 18:30N 40°36' W 074°02'0 0.0
2017-Sep-18 18:00N 40°36' W 074°02'1 2.5
2017-Sep-18 17:30N 40°37' W 074°03'4 7.5
2017-Sep-18 16:59N 40°39' W 074°07'4 7.1
2017-Sep-18 16:30N 40°38' W 074°12'  
2017-Sep-15 18:54N 40°38' W 074°12'1 2.2
2017-Sep-15 18:29N 40°39' W 074°11'4 9.0
2017-Sep-15 18:00N 40°39' W 074°05'2 3.4
2017-Sep-15 17:30N 40°39' W 074°03'0 0.1
2017-Sep-15 17:00N 40°39' W 074°03'0 0.4
2017-Sep-15 16:30N 40°39' W 074°03'0 0.2
2017-Sep-15 15:59N 40°39' W 074°03'0 0.0
2017-Sep-15 15:30N 40°39' W 074°03'0 0.7
2017-Sep-15 15:00N 40°38' W 074°03'1 2.6
2017-Sep-15 14:30N 40°37' W 074°04'2 4.4
2017-Sep-15 14:00N 40°39' W 074°05'5 7.6
2017-Sep-15 13:23N 40°39' W 074°11'1 1.6
2017-Sep-15 13:00N 40°38' W 074°12'0 0.0
2017-Sep-15 12:30N 40°38' W 074°12'0 0.0
2017-Sep-14 15:38N 40°38' W 074°12'0 0.2
2017-Sep-14 15:30N 40°38' W 074°12'1 2.9
2017-Sep-14 15:00N 40°39' W 074°10'2 4.3
2017-Sep-14 14:30N 40°41' W 074°09'0 0.0
2017-Sep-14 14:00N 40°41' W 074°09'0 0.0
2017-Sep-14 13:30N 40°41' W 074°09'0 0.0
2017-Sep-14 13:00N 40°41' W 074°09'0 0.1
2017-Sep-14 12:30N 40°41' W 074°09'3 5.1
2017-Sep-14 11:58N 40°39' W 074°11'1 0.0
2017-Sep-13 23:21N 40°38' W 074°12'0 0.2
2017-Sep-13 20:34N 40°39' W 074°11'0 5.9
2017-Sep-13 20:30N 40°38' W 074°12'0 0.0
2017-Sep-13 20:00N 40°38' W 074°12'0 0.0
2017-Sep-13 19:29N 40°38' W 074°12'0 0.0
2017-Sep-13 19:00N 40°38' W 074°12'0 0.0
2017-Sep-13 18:30N 40°38' W 074°12'0 0.0
2017-Sep-13 18:00N 40°38' W 074°12'0 0.0
2017-Sep-13 17:29N 40°38' W 074°12'0 0.0
2017-Sep-13 17:00N 40°38' W 074°12'0 0.0
2017-Sep-13 16:30N 40°38' W 074°12'0 0.0
2017-Sep-13 15:59N 40°38' W 074°12'0 0.0
2017-Sep-13 15:30N 40°38' W 074°12'0 0.0
2017-Sep-13 15:00N 40°38' W 074°12'0 0.8
2017-Sep-13 14:27N 40°39' W 074°11'0 0.0
2017-Sep-13 13:45N 40°39' W 074°11'0 0.0
2017-Sep-13 13:30N 40°39' W 074°11'0 0.0
2017-Sep-13 13:00N 40°39' W 074°11'0 0.0
2017-Sep-13 12:30N 40°39' W 074°11'0 0.1
2017-Sep-13 12:00N 40°39' W 074°11'0 0.1
2017-Sep-13 04:32N 40°38' W 074°12'0 0.0
2017-Sep-13 04:30N 40°38' W 074°12'4 7.1
2017-Sep-13 04:00N 40°39' W 074°07'2 5.0
2017-Sep-13 03:30N 40°38' W 074°04'0 0.1
2017-Sep-13 03:00N 40°38' W 074°04'0 0.2
2017-Sep-13 02:30N 40°38' W 074°04'1 1.6
2017-Sep-13 02:00N 40°38' W 074°03'0 0.0
2017-Sep-13 01:30N 40°38' W 074°03'0 0.0
2017-Sep-13 01:00N 40°38' W 074°03'0 0.1
2017-Sep-13 00:30N 40°38' W 074°03'1 2.7
2017-Sep-13 00:00N 40°39' W 074°04'3 6.6
2017-Sep-12 23:30N 40°39' W 074°09'0 0.4
2017-Sep-12 23:00N 40°40' W 074°09'0 0.0
2017-Sep-12 22:30N 40°40' W 074°09'3 0.1
2017-Sep-11 05:37N 40°38' W 074°12'1 6.6
2017-Sep-11 05:28N 40°39' W 074°11'3 7.4
2017-Sep-11 05:00N 40°39' W 074°06'2 4.0
2017-Sep-11 04:30N 40°38' W 074°04'0 0.0
2017-Sep-11 04:00N 40°38' W 074°04'0 0.0
2017-Sep-11 03:30N 40°38' W 074°04'0 0.0
2017-Sep-11 03:00N 40°38' W 074°04'0 0.0
2017-Sep-11 02:30N 40°38' W 074°04'0 0.1
2017-Sep-11 02:00N 40°38' W 074°04'1 1.4
2017-Sep-11 01:30N 40°39' W 074°04'3 6.7
2017-Sep-11 01:00N 40°39' W 074°08'  
Track history (hours):
 
Tides and Currents Weather Stations Pressure Air Temp Water Temp Dewpoint Dewpoint Depression Visibility Wind Speed Wind Dir Waves Ship Positions

Sunny Williams

Owner: Marine Oil Service of New York, LLC, Elizabeth, NJ. More information available from US FCC via Universal Licensing System.

Last reported at 2017-Sep-21 00:39 UTC. Time now 2017-Sep-21 05:01 UTC.
Position N 40°42' W 074°09'.

Type: Tanker. MMSI: 367359930.

Date/timePositionNaut miles runAvg speedWind from/ knotsBaromVisibWave heightAir tempDewpointWater temp
2017-Sep-21 00:39N 40°42' W 074°09'0 1.9
2017-Sep-21 00:30N 40°42' W 074°08'0 0.0
2017-Sep-21 00:00N 40°42' W 074°08'0 0.0
2017-Sep-20 23:28N 40°42' W 074°08'0 0.0
2017-Sep-20 23:00N 40°42' W 074°08'0 0.0
2017-Sep-20 22:30N 40°42' W 074°08'0 0.0
2017-Sep-20 22:00N 40°42' W 074°08'0 0.7
2017-Sep-20 21:30N 40°41' W 074°08'3 5.5
2017-Sep-20 21:00N 40°39' W 074°07'2 4.6
2017-Sep-20 20:30N 40°38' W 074°04'0 0.0
2017-Sep-20 20:00N 40°38' W 074°04'0 0.0
2017-Sep-20 19:29N 40°38' W 074°04'0 0.0
2017-Sep-20 19:00N 40°38' W 074°04'0 0.4
2017-Sep-20 18:30N 40°38' W 074°04'0 0.7
2017-Sep-20 18:00N 40°38' W 074°04'4 7.9
2017-Sep-20 17:26N 40°39' W 074°10'2 3.6
2017-Sep-20 17:00N 40°38' W 074°12'0 0.0
2017-Sep-20 16:30N 40°38' W 074°12'1 1.1
2017-Sep-20 15:59N 40°38' W 074°12'0 0.0
2017-Sep-20 14:43N 40°38' W 074°12'0 0.1
2017-Sep-20 13:59N 40°38' W 074°12'0 0.9
2017-Sep-20 13:30N 40°38' W 074°12'0 0.2
2017-Sep-20 13:00N 40°38' W 074°12'0 0.0
2017-Sep-20 12:30N 40°38' W 074°12'0 0.0
2017-Sep-20 12:00N 40°38' W 074°12'0 0.0
2017-Sep-20 00:27N 40°38' W 074°12'2 4.8
2017-Sep-20 00:00N 40°39' W 074°09'4 7.6
2017-Sep-19 23:30N 40°38' W 074°04'1 0.5
2017-Sep-19 22:06N 40°38' W 074°04'0 0.2
2017-Sep-19 21:57N 40°38' W 074°04'1 1.8
2017-Sep-19 21:30N 40°38' W 074°03'4 8.9
2017-Sep-19 21:00N 40°43' W 074°02'4 7.2
2017-Sep-19 20:30N 40°46' W 073°60'0 0.0
2017-Sep-19 20:00N 40°46' W 073°60'1 2.9
2017-Sep-19 19:30N 40°45' W 074°01'3 5.8
2017-Sep-19 19:00N 40°42' W 074°02'3 5.8
2017-Sep-19 18:30N 40°39' W 074°03'4 8.1
2017-Sep-19 18:00N 40°38' W 074°09'2 0.1
2017-Sep-19 00:26N 40°38' W 074°12'3 5.9
2017-Sep-19 00:00N 40°39' W 074°09'2 1.5
2017-Sep-18 22:22N 40°42' W 074°09'3 7.5
2017-Sep-18 21:59N 40°39' W 074°09'3 4.6
2017-Sep-18 21:25N 40°38' W 074°12'0 0.0
2017-Sep-18 21:00N 40°38' W 074°12'0 0.0
2017-Sep-18 20:30N 40°38' W 074°12'2 3.6
2017-Sep-18 19:58N 40°39' W 074°10'4 9.5
2017-Sep-18 19:30N 40°39' W 074°04'4 6.7
2017-Sep-18 18:59N 40°36' W 074°02'0 0.0
2017-Sep-18 18:30N 40°36' W 074°02'0 0.0
2017-Sep-18 18:00N 40°36' W 074°02'1 2.5
2017-Sep-18 17:30N 40°37' W 074°03'4 7.5
2017-Sep-18 16:59N 40°39' W 074°07'4 7.1
2017-Sep-18 16:30N 40°38' W 074°12'  
2017-Sep-15 18:54N 40°38' W 074°12'1 2.2
2017-Sep-15 18:29N 40°39' W 074°11'4 9.0
2017-Sep-15 18:00N 40°39' W 074°05'2 3.4
2017-Sep-15 17:30N 40°39' W 074°03'0 0.1
2017-Sep-15 17:00N 40°39' W 074°03'0 0.4
2017-Sep-15 16:30N 40°39' W 074°03'0 0.2
2017-Sep-15 15:59N 40°39' W 074°03'0 0.0
2017-Sep-15 15:30N 40°39' W 074°03'0 0.7
2017-Sep-15 15:00N 40°38' W 074°03'1 2.6
2017-Sep-15 14:30N 40°37' W 074°04'2 4.4
2017-Sep-15 14:00N 40°39' W 074°05'5 7.6
2017-Sep-15 13:23N 40°39' W 074°11'1 1.6
2017-Sep-15 13:00N 40°38' W 074°12'0 0.0
2017-Sep-15 12:30N 40°38' W 074°12'0 0.0
2017-Sep-14 15:38N 40°38' W 074°12'0 0.2
2017-Sep-14 15:30N 40°38' W 074°12'1 2.9
2017-Sep-14 15:00N 40°39' W 074°10'2 4.3
2017-Sep-14 14:30N 40°41' W 074°09'0 0.0
2017-Sep-14 14:00N 40°41' W 074°09'0 0.0
2017-Sep-14 13:30N 40°41' W 074°09'0 0.0
2017-Sep-14 13:00N 40°41' W 074°09'0 0.1
2017-Sep-14 12:30N 40°41' W 074°09'3 5.1
2017-Sep-14 11:58N 40°39' W 074°11'1 0.0
2017-Sep-13 23:21N 40°38' W 074°12'0 0.2
2017-Sep-13 20:34N 40°39' W 074°11'0 5.9
2017-Sep-13 20:30N 40°38' W 074°12'0 0.0
2017-Sep-13 20:00N 40°38' W 074°12'0 0.0
2017-Sep-13 19:29N 40°38' W 074°12'0 0.0
2017-Sep-13 19:00N 40°38' W 074°12'0 0.0
2017-Sep-13 18:30N 40°38' W 074°12'0 0.0
2017-Sep-13 18:00N 40°38' W 074°12'0 0.0
2017-Sep-13 17:29N 40°38' W 074°12'0 0.0
2017-Sep-13 17:00N 40°38' W 074°12'0 0.0
2017-Sep-13 16:30N 40°38' W 074°12'0 0.0
2017-Sep-13 15:59N 40°38' W 074°12'0 0.0
2017-Sep-13 15:30N 40°38' W 074°12'0 0.0
2017-Sep-13 15:00N 40°38' W 074°12'0 0.8
2017-Sep-13 14:27N 40°39' W 074°11'0 0.0
2017-Sep-13 13:45N 40°39' W 074°11'0 0.0
2017-Sep-13 13:30N 40°39' W 074°11'0 0.0
2017-Sep-13 13:00N 40°39' W 074°11'0 0.0
2017-Sep-13 12:30N 40°39' W 074°11'0 0.1
2017-Sep-13 12:00N 40°39' W 074°11'0 0.1
2017-Sep-13 04:32N 40°38' W 074°12'0 0.0
2017-Sep-13 04:30N 40°38' W 074°12'4 7.1
2017-Sep-13 04:00N 40°39' W 074°07'2 5.0
2017-Sep-13 03:30N 40°38' W 074°04'0 0.1
2017-Sep-13 03:00N 40°38' W 074°04'0 0.2
2017-Sep-13 02:30N 40°38' W 074°04'1 1.6
2017-Sep-13 02:00N 40°38' W 074°03'0 0.0
2017-Sep-13 01:30N 40°38' W 074°03'0 0.0
2017-Sep-13 01:00N 40°38' W 074°03'0 0.1
2017-Sep-13 00:30N 40°38' W 074°03'1 2.7
2017-Sep-13 00:00N 40°39' W 074°04'3 6.6
2017-Sep-12 23:30N 40°39' W 074°09'0 0.4
2017-Sep-12 23:00N 40°40' W 074°09'0 0.0
2017-Sep-12 22:30N 40°40' W 074°09'3 0.1
2017-Sep-11 05:37N 40°38' W 074°12'1 6.6
2017-Sep-11 05:28N 40°39' W 074°11'3 7.4
2017-Sep-11 05:00N 40°39' W 074°06'2 4.0
2017-Sep-11 04:30N 40°38' W 074°04'0 0.0
2017-Sep-11 04:00N 40°38' W 074°04'0 0.0
2017-Sep-11 03:30N 40°38' W 074°04'0 0.0
2017-Sep-11 03:00N 40°38' W 074°04'0 0.0
2017-Sep-11 02:30N 40°38' W 074°04'0 0.1
2017-Sep-11 02:00N 40°38' W 074°04'1 1.4
2017-Sep-11 01:30N 40°39' W 074°04'3 6.7
2017-Sep-11 01:00N 40°39' W 074°08'  

Dump ship's entire track history